Garden Spring, Nevada Weather observations

Data are for 10 minute period ending at time listed.
 Day   Time    Ave.   Ave.  Ave.  Vector   Max.   Stn.    Total    Solar   Ave.  
  of    of     Air    Rel.  Wind   Wind    Wind   Baro.  Precip.   Rad.    Soil  
Year   Day     Temp.  Hum.  Speed  Dir.    Gust   Pres.                    Temp. 
2015   (PST)    F      %     mph   deg.    mph     mb.     in.     W/m2     F    
--------------------------------------------------------------------------------- 
  26   15:00   61.6    25    6.1    85     15.7   855.7    0.00     329    48.2  
  26   16:00   62.1    24    5.2    85     11.1   855.6    0.00     230    48.7  
  26   17:00   56.9    29    1.3   159      6.8   855.5    0.00      29    48.7  
  26   18:00   51.3    35    2.6   273      5.7   855.6    0.00       0    48.7  
  26   19:00   48.9    40    4.3   268      6.5   855.6    0.00       0    48.7  
  26   20:00   47.1    43    3.9   272      6.4   855.7    0.00       0    48.0  
  26   21:00   46.4    45    3.2   257      4.8   855.8    0.00       0    47.5  
  26   22:00   47.8    45    3.1   261      5.1   855.9    0.00       0    47.2  
  26   23:00   49.0    46    2.4   252      5.0   856.1    0.00       0    46.9  
  27    0:00   49.6    44    2.7   223      7.6   856.4    0.00       0    46.6  
  27    1:00   50.0    49    4.9   242     12.4   856.6    0.00       0    46.4  
  27    2:00   45.6    76    2.4   210     11.2   857.4    0.01       0    45.9  
  27    3:00   43.5    89    1.6   156      7.3   857.7    0.08       0    45.9  
  27    4:00   42.9    92    3.7    35     14.1   857.2    0.07       0    45.8  
  27    5:00   42.6    90    3.7   155     13.3   857.1    0.00       0    45.6  
  27    6:00   42.2    89    1.2   198      4.6   857.4    0.00       0    45.3  
  27    7:00   42.0    91    2.4    65      7.3   857.9    0.01       1    45.2  
  27    8:00   42.6    92    1.1   259      4.1   858.2    0.01      21    45.1  
  27    9:00   43.6    91    0.6   261      3.8   858.8    0.02      29    45.0  
  27   10:00   44.3    92    0.7    84      3.2   859.0    0.00      71    45.1  
  27   11:00   45.7    89    2.0   115      4.5   858.9    0.00     115    45.3  
  27   12:00   46.1    91    5.0   160     13.6   858.6    0.00     143    45.5  
  27   13:00   47.7    86    6.4   180     12.3   857.9    0.00     256    46.0  
  27   14:00   47.9    84    6.8   180     12.9   857.4    0.00     197    46.3  

Return to Garden Spring, Nevada graphs page.


Western Regional Climate Center,wrcc@dri.edu